Time;durP1;ratioP1;P1;durP2;ratioP2;P2;SDS_P1;SDS_P2;PMS_P1;PMS_P2;Temp;Humidity;BMP_temperature;BMP_pressure;BME280_temperature;BME280_humidity;BME280_pressure;Samples;Min_cycle;Max_cycle;Signal;HPM_P1;HPM_P2
2024/02/21 00:00:34;;;;;;;5.65;3.15;;;;;;;;;;5026889;28;58368;-77
2024/02/21 00:03:02;;;;;;;2.47;2.00;;;;;;;;;;5025337;28;58841;-78
2024/02/21 00:05:27;;;;;;;9.82;3.28;;;;;;;;;;5016901;28;58462;-78
2024/02/21 00:07:52;;;;;;;5.55;3.00;;;;;;;;;;5018918;28;59245;-78
2024/02/21 00:10:18;;;;;;;4.25;2.55;;;;;;;;;;5022580;28;58340;-77
2024/02/21 00:12:43;;;;;;;6.00;2.40;;;;;;;;;;5014408;28;58488;-74
2024/02/21 00:15:08;;;;;;;7.38;3.10;;;;;;;;;;5023495;28;60257;-76
2024/02/21 00:17:33;;;;;;;4.75;2.42;;;;;;;;;;5023425;28;58835;-76
2024/02/21 00:19:59;;;;;;;5.33;3.40;;;;;;;;;;5019549;28;58438;-76
2024/02/21 00:22:24;;;;;;;15.27;2.60;;;;;;;;;;5015744;28;58669;-75
2024/02/21 00:24:49;;;;;;;2.78;2.13;;;;;;;;;;5016714;28;58558;-76
2024/02/21 00:27:15;;;;;;;4.10;2.43;;;;;;;;;;5025861;28;59187;-75
2024/02/21 00:29:40;;;;;;;2.87;2.17;;;;;;;;;;5026970;28;59676;-75
2024/02/21 00:32:05;;;;;;;3.25;2.20;;;;;;;;;;5027487;28;58412;-75
2024/02/21 00:34:30;;;;;;;5.10;2.43;;;;;;;;;;5025606;28;59513;-75
2024/02/21 00:36:55;;;;;;;4.37;2.13;;;;;;;;;;5027688;28;59199;-75
2024/02/21 00:39:21;;;;;;;3.08;2.58;;;;;;;;;;5018582;28;58415;-71
2024/02/21 00:41:46;;;;;;;3.47;2.75;;;;;;;;;;5024305;28;59814;-72
2024/02/21 00:44:11;;;;;;;3.60;2.67;;;;;;;;;;5021185;28;58816;-72
2024/02/21 00:46:38;;;;;;;3.07;2.53;;;;;;;;;;5019078;28;60281;-72
2024/02/21 00:49:03;;;;;;;4.88;2.88;;;;;;;;;;5026949;28;59191;-76
2024/02/21 00:51:28;;;;;;;5.60;2.72;;;;;;;;;;5016172;28;58582;-75
2024/02/21 00:53:54;;;;;;;5.38;2.53;;;;;;;;;;5029186;28;59501;-75
2024/02/21 00:56:20;;;;;;;2.75;2.08;;;;;;;;;;5030045;28;59102;-75
2024/02/21 00:58:45;;;;;;;3.93;2.33;;;;;;;;;;5024308;28;58431;-75
2024/02/21 01:01:10;;;;;;;3.78;2.22;;;;;;;;;;5015766;28;59113;-75
2024/02/21 01:03:35;;;;;;;3.90;2.90;;;;;;;;;;5027103;28;59029;-75
2024/02/21 01:06:00;;;;;;;6.60;2.73;;;;;;;;;;5026874;28;58794;-75
2024/02/21 01:08:25;;;;;;;4.82;3.05;;;;;;;;;;5026291;28;58721;-76
2024/02/21 01:10:51;;;;;;;2.53;2.17;;;;;;;;;;5023803;28;58605;-75
2024/02/21 01:13:16;;;;;;;3.93;2.37;;;;;;;;;;5018557;28;59228;-75
2024/02/21 01:15:41;;;;;;;3.23;2.33;;;;;;;;;;5015407;28;58876;-74
2024/02/21 01:18:06;;;;;;;3.42;2.30;;;;;;;;;;5017643;28;58442;-77
2024/02/21 01:20:31;;;;;;;2.43;2.23;;;;;;;;;;5016160;28;59408;-75
2024/02/21 01:22:56;;;;;;;2.70;2.13;;;;;;;;;;5022848;28;58497;-76
2024/02/21 01:25:22;;;;;;;6.90;3.55;;;;;;;;;;5027306;28;58450;-77
2024/02/21 01:27:47;;;;;;;4.73;2.87;;;;;;;;;;5029062;28;59460;-75
2024/02/21 01:30:12;;;;;;;4.03;2.23;;;;;;;;;;5027471;28;59066;-75
2024/02/21 01:32:37;;;;;;;2.43;1.87;;;;;;;;;;5027972;28;58889;-76
2024/02/21 01:35:02;;;;;;;3.33;2.57;;;;;;;;;;5026484;28;58481;-76
2024/02/21 01:37:27;;;;;;;4.20;2.73;;;;;;;;;;5024466;28;58556;-76
2024/02/21 01:39:53;;;;;;;4.20;1.83;;;;;;;;;;5017528;28;59036;-76
2024/02/21 01:42:18;;;;;;;2.90;1.80;;;;;;;;;;5015640;28;58924;-75
2024/02/21 01:44:43;;;;;;;5.20;2.47;;;;;;;;;;5006800;28;58489;-76
2024/02/21 01:47:08;;;;;;;4.07;2.20;;;;;;;;;;5011418;28;59257;-76
2024/02/21 01:49:33;;;;;;;2.83;2.00;;;;;;;;;;5016251;28;58711;-73
2024/02/21 01:51:59;;;;;;;3.10;2.20;;;;;;;;;;5018200;28;59483;-73
2024/02/21 01:54:24;;;;;;;4.03;1.92;;;;;;;;;;5014114;28;59027;-73
2024/02/21 01:56:50;;;;;;;5.65;2.85;;;;;;;;;;5024425;28;58393;-73
2024/02/21 01:59:16;;;;;;;3.80;2.83;;;;;;;;;;5023474;28;60038;-76
2024/02/21 02:01:41;;;;;;;4.97;2.08;;;;;;;;;;5017423;28;58467;-76
2024/02/21 02:04:06;;;;;;;3.20;2.40;;;;;;;;;;5026334;28;58446;-76
2024/02/21 02:06:32;;;;;;;4.73;2.27;;;;;;;;;;5014800;28;59341;-75
2024/02/21 02:08:57;;;;;;;1.90;1.77;;;;;;;;;;5023945;28;58524;-76
2024/02/21 02:11:22;;;;;;;4.57;2.30;;;;;;;;;;5021473;28;58505;-76
2024/02/21 02:13:47;;;;;;;5.00;3.13;;;;;;;;;;5015933;28;59057;-75
2024/02/21 02:16:12;;;;;;;3.83;2.60;;;;;;;;;;5027593;28;58729;-76
2024/02/21 02:18:38;;;;;;;2.27;1.53;;;;;;;;;;5026872;28;59507;-76
2024/02/21 02:21:04;;;;;;;4.05;2.65;;;;;;;;;;5026404;28;58790;-76
2024/02/21 02:23:31;;;;;;;3.20;2.40;;;;;;;;;;5019327;28;58497;-76
2024/02/21 02:25:56;;;;;;;3.25;2.35;;;;;;;;;;5011702;28;60407;-76
2024/02/21 02:28:22;;;;;;;2.35;1.80;;;;;;;;;;5007842;28;58957;-76
2024/02/21 02:30:47;;;;;;;7.17;2.47;;;;;;;;;;5024520;28;58429;-76
2024/02/21 02:33:12;;;;;;;3.60;2.90;;;;;;;;;;5017108;28;58414;-76
2024/02/21 02:35:38;;;;;;;2.90;2.00;;;;;;;;;;5022136;28;58720;-76
2024/02/21 02:38:03;;;;;;;2.60;2.00;;;;;;;;;;5021850;28;58567;-76
2024/02/21 02:40:28;;;;;;;2.35;2.03;;;;;;;;;;5016389;28;59131;-76
2024/02/21 02:42:55;;;;;;;3.95;2.20;;;;;;;;;;5025505;28;58410;-76
2024/02/21 02:45:20;;;;;;;2.63;2.00;;;;;;;;;;5017272;28;60219;-76
2024/02/21 02:47:46;;;;;;;4.72;2.90;;;;;;;;;;5012537;28;58393;-77
2024/02/21 02:50:11;;;;;;;2.77;1.93;;;;;;;;;;5023082;28;58283;-76
2024/02/21 02:52:36;;;;;;;2.63;1.88;;;;;;;;;;5025676;28;60343;-76
2024/02/21 02:55:01;;;;;;;2.70;1.88;;;;;;;;;;5026704;28;58499;-76
2024/02/21 02:57:27;;;;;;;3.03;1.80;;;;;;;;;;5026217;28;59876;-76
2024/02/21 02:59:52;;;;;;;1.70;1.60;;;;;;;;;;5015902;28;59114;-76
2024/02/21 03:02:17;;;;;;;4.93;2.17;;;;;;;;;;5021443;28;58382;-76
2024/02/21 03:04:43;;;;;;;3.03;2.10;;;;;;;;;;5021462;28;60287;-76
2024/02/21 03:07:08;;;;;;;3.17;1.95;;;;;;;;;;5016237;28;58939;-76
2024/02/21 03:09:33;;;;;;;4.57;1.73;;;;;;;;;;5026999;28;58421;-77
2024/02/21 03:12:02;;;;;;;3.42;1.92;;;;;;;;;;5018778;28;58660;-77
2024/02/21 03:14:28;;;;;;;2.95;1.58;;;;;;;;;;5024249;28;58842;-76
2024/02/21 03:16:53;;;;;;;7.57;1.92;;;;;;;;;;5023141;28;58521;-76
2024/02/21 03:19:18;;;;;;;3.03;1.77;;;;;;;;;;5014087;28;58501;-76
2024/02/21 03:21:43;;;;;;;2.07;1.70;;;;;;;;;;5007041;28;58467;-77
2024/02/21 03:24:08;;;;;;;3.00;1.67;;;;;;;;;;5023496;28;60132;-74
2024/02/21 03:26:33;;;;;;;3.20;2.20;;;;;;;;;;5017416;28;58755;-74
2024/02/21 03:28:58;;;;;;;3.93;2.70;;;;;;;;;;5019257;28;58546;-74
2024/02/21 03:31:24;;;;;;;1.77;1.42;;;;;;;;;;5024827;28;59487;-74
2024/02/21 03:33:49;;;;;;;2.23;2.03;;;;;;;;;;5013949;28;59878;-75
2024/02/21 03:36:15;;;;;;;3.20;2.03;;;;;;;;;;5027136;28;58704;-76
2024/02/21 03:38:40;;;;;;;2.88;1.35;;;;;;;;;;5018961;28;59216;-76
2024/02/21 03:41:05;;;;;;;2.57;2.07;;;;;;;;;;5019546;28;58415;-77
2024/02/21 03:43:30;;;;;;;4.30;2.87;;;;;;;;;;5023722;28;58568;-76
2024/02/21 03:45:56;;;;;;;3.63;1.67;;;;;;;;;;5013526;28;59051;-76
2024/02/21 03:48:21;;;;;;;1.97;1.60;;;;;;;;;;5014984;28;58304;-76
2024/02/21 03:50:46;;;;;;;3.00;2.00;;;;;;;;;;5012272;28;59330;-76
2024/02/21 03:53:12;;;;;;;2.42;2.00;;;;;;;;;;5012500;28;58822;-76
2024/02/21 03:55:37;;;;;;;2.60;1.95;;;;;;;;;;5019178;28;58205;-76
2024/02/21 03:58:02;;;;;;;2.92;1.83;;;;;;;;;;5025550;28;59906;-76
2024/02/21 04:00:27;;;;;;;2.80;1.60;;;;;;;;;;5025459;28;58432;-76
2024/02/21 04:02:52;;;;;;;1.90;1.80;;;;;;;;;;5028175;28;59342;-74
2024/02/21 04:05:18;;;;;;;3.33;1.83;;;;;;;;;;5029087;28;58531;-75
2024/02/21 04:07:43;;;;;;;2.67;2.03;;;;;;;;;;5022705;28;58455;-76
2024/02/21 04:10:08;;;;;;;2.07;1.63;;;;;;;;;;5010611;28;59475;-76
2024/02/21 04:12:33;;;;;;;3.10;1.70;;;;;;;;;;5020260;28;59970;-76
2024/02/21 04:14:58;;;;;;;1.38;1.27;;;;;;;;;;5029371;28;58657;-76
2024/02/21 04:17:23;;;;;;;1.90;1.60;;;;;;;;;;5032438;28;59424;-76
2024/02/21 04:19:49;;;;;;;2.25;1.88;;;;;;;;;;5028462;28;58528;-76
2024/02/21 04:22:14;;;;;;;3.00;1.43;;;;;;;;;;5027061;28;58658;-76
2024/02/21 04:24:39;;;;;;;2.50;1.93;;;;;;;;;;5028946;28;59033;-76
2024/02/21 04:27:04;;;;;;;2.40;1.70;;;;;;;;;;5021637;28;58710;-76
2024/02/21 04:29:29;;;;;;;1.97;1.30;;;;;;;;;;5015660;28;60087;-75
2024/02/21 04:31:54;;;;;;;2.83;1.50;;;;;;;;;;5019645;28;58970;-76
2024/02/21 04:34:20;;;;;;;1.88;1.42;;;;;;;;;;5016442;28;58248;-74
2024/02/21 04:36:45;;;;;;;2.42;1.65;;;;;;;;;;5020179;28;59480;-76
2024/02/21 04:39:11;;;;;;;2.38;1.45;;;;;;;;;;5028169;28;58647;-76
2024/02/21 04:41:36;;;;;;;1.98;1.65;;;;;;;;;;5027234;28;60573;-75
2024/02/21 04:44:03;;;;;;;5.43;2.63;;;;;;;;;;5021814;28;59003;-76
2024/02/21 04:46:28;;;;;;;1.95;1.60;;;;;;;;;;5016073;28;58403;-76
2024/02/21 04:48:54;;;;;;;3.17;1.87;;;;;;;;;;5010353;28;59253;-76
2024/02/21 04:51:19;;;;;;;2.33;1.73;;;;;;;;;;5030052;28;60109;-75
2024/02/21 04:53:44;;;;;;;2.53;1.70;;;;;;;;;;5019924;28;58400;-75
2024/02/21 04:56:10;;;;;;;2.65;1.45;;;;;;;;;;5021861;28;59245;-76
2024/02/21 04:58:37;;;;;;;1.67;1.33;;;;;;;;;;5023080;28;58951;-76
2024/02/21 05:01:02;;;;;;;1.77;1.63;;;;;;;;;;5015541;28;58373;-76
2024/02/21 05:03:27;;;;;;;1.93;1.53;;;;;;;;;;5028150;28;59307;-76
2024/02/21 05:05:53;;;;;;;2.17;1.57;;;;;;;;;;5029273;27;58350;-76
2024/02/21 05:08:18;;;;;;;2.72;2.35;;;;;;;;;;5029578;28;58730;-76
2024/02/21 05:10:43;;;;;;;2.83;1.85;;;;;;;;;;5021922;28;60805;-76
2024/02/21 05:13:09;;;;;;;2.53;1.80;;;;;;;;;;5018431;28;58368;-75
2024/02/21 05:15:34;;;;;;;2.17;1.58;;;;;;;;;;5029223;28;59376;-74
2024/02/21 05:17:59;;;;;;;3.67;1.97;;;;;;;;;;5017413;28;58927;-75
2024/02/21 05:20:24;;;;;;;5.22;1.80;;;;;;;;;;5016947;28;58383;-76
2024/02/21 05:22:49;;;;;;;4.20;2.58;;;;;;;;;;5017576;28;58451;-76
2024/02/21 05:25:14;;;;;;;7.80;3.15;;;;;;;;;;5017280;28;58422;-76
2024/02/21 05:27:39;;;;;;;6.17;3.17;;;;;;;;;;5027017;28;58627;-76
2024/02/21 05:30:06;;;;;;;5.40;3.10;;;;;;;;;;5007255;28;58387;-75
2024/02/21 05:32:31;;;;;;;6.05;2.78;;;;;;;;;;5011744;28;58674;-75
2024/02/21 05:34:58;;;;;;;7.25;3.00;;;;;;;;;;5018774;28;60177;-76
2024/02/21 05:37:23;;;;;;;9.52;3.35;;;;;;;;;;5026895;28;59795;-76
2024/02/21 05:39:48;;;;;;;8.95;3.38;;;;;;;;;;5026965;28;58506;-76
2024/02/21 05:42:14;;;;;;;5.70;3.63;;;;;;;;;;5026854;28;60689;-76
2024/02/21 05:44:39;;;;;;;5.17;2.90;;;;;;;;;;5026453;28;59102;-76
2024/02/21 05:47:04;;;;;;;8.77;3.47;;;;;;;;;;5023321;28;59284;-76
2024/02/21 05:49:29;;;;;;;6.97;3.78;;;;;;;;;;5020200;28;59087;-76
2024/02/21 05:51:54;;;;;;;9.57;3.17;;;;;;;;;;5027664;28;58343;-76
2024/02/21 05:54:19;;;;;;;10.13;3.97;;;;;;;;;;5026269;28;59100;-76
2024/02/21 05:56:45;;;;;;;6.93;4.13;;;;;;;;;;5016618;28;58536;-76
2024/02/21 05:59:10;;;;;;;6.70;3.95;;;;;;;;;;5017389;28;58395;-76
2024/02/21 06:01:36;;;;;;;10.07;3.57;;;;;;;;;;5016603;28;60297;-76
2024/02/21 06:04:01;;;;;;;10.30;4.33;;;;;;;;;;5012960;28;58872;-75
2024/02/21 06:06:26;;;;;;;7.90;3.43;;;;;;;;;;5016504;28;60274;-76
2024/02/21 06:08:51;;;;;;;15.80;5.67;;;;;;;;;;5022705;28;59060;-76
2024/02/21 06:11:16;;;;;;;8.53;4.60;;;;;;;;;;5020501;28;57878;-76
2024/02/21 06:13:42;;;;;;;15.13;5.72;;;;;;;;;;5017488;28;58723;-76
2024/02/21 06:16:07;;;;;;;16.43;6.23;;;;;;;;;;5027517;28;59188;-76
2024/02/21 06:18:33;;;;;;;13.20;5.40;;;;;;;;;;5017951;28;58464;-76
2024/02/21 06:20:59;;;;;;;19.45;7.20;;;;;;;;;;5017299;28;59762;-76
2024/02/21 06:23:24;;;;;;;14.38;4.97;;;;;;;;;;5016572;28;59465;-76
2024/02/21 06:25:49;;;;;;;14.73;6.03;;;;;;;;;;5020779;28;58434;-76
2024/02/21 06:28:14;;;;;;;14.07;4.82;;;;;;;;;;5022602;28;59272;-76
2024/02/21 06:30:40;;;;;;;13.77;7.35;;;;;;;;;;5013967;28;58511;-73
2024/02/21 06:33:05;;;;;;;14.13;6.18;;;;;;;;;;5024129;28;58519;-72
2024/02/21 06:35:30;;;;;;;18.07;6.83;;;;;;;;;;5014727;28;58366;-73
2024/02/21 06:37:55;;;;;;;15.87;5.50;;;;;;;;;;5011007;28;58395;-73
2024/02/21 06:40:22;;;;;;;16.17;5.13;;;;;;;;;;5013092;28;59530;-73
2024/02/21 06:42:47;;;;;;;13.50;4.93;;;;;;;;;;5013606;28;58560;-71
2024/02/21 06:45:12;;;;;;;18.57;6.90;;;;;;;;;;5026832;28;58332;-73
2024/02/21 06:47:37;;;;;;;14.27;6.03;;;;;;;;;;5024015;28;59346;-73
2024/02/21 06:50:02;;;;;;;10.90;5.00;;;;;;;;;;5025531;28;58606;-73
2024/02/21 06:52:28;;;;;;;20.80;6.37;;;;;;;;;;5025437;28;60806;-73
2024/02/21 06:54:53;;;;;;;18.53;5.37;;;;;;;;;;5027961;28;58746;-73
2024/02/21 06:57:18;;;;;;;14.30;6.67;;;;;;;;;;5025646;28;58401;-73
2024/02/21 06:59:43;;;;;;;16.80;5.90;;;;;;;;;;5026868;28;59184;-73
2024/02/21 07:02:08;;;;;;;15.93;7.13;;;;;;;;;;5015402;28;58402;-73
2024/02/21 07:04:33;;;;;;;15.52;6.97;;;;;;;;;;5009819;28;58438;-72
2024/02/21 07:06:59;;;;;;;30.63;7.87;;;;;;;;;;5015250;28;60253;-74
2024/02/21 07:09:24;;;;;;;16.17;6.10;;;;;;;;;;5018968;28;59119;-73
2024/02/21 07:11:49;;;;;;;19.77;6.47;;;;;;;;;;5008218;28;59723;-73
2024/02/21 07:14:15;;;;;;;14.98;5.47;;;;;;;;;;5020079;28;58672;-73
2024/02/21 07:16:40;;;;;;;18.05;6.80;;;;;;;;;;5026501;28;58425;-73
2024/02/21 07:19:05;;;;;;;10.93;5.13;;;;;;;;;;5027620;28;59467;-73
2024/02/21 07:21:31;;;;;;;15.53;6.53;;;;;;;;;;5024643;28;58495;-73
2024/02/21 07:23:56;;;;;;;11.07;5.03;;;;;;;;;;5017660;28;58324;-73
2024/02/21 07:26:21;;;;;;;13.93;6.43;;;;;;;;;;5023092;28;61185;-73
2024/02/21 07:28:46;;;;;;;12.57;5.47;;;;;;;;;;5019756;28;58819;-73
2024/02/21 07:31:12;;;;;;;15.47;6.53;;;;;;;;;;5019291;28;58548;-73
2024/02/21 07:33:37;;;;;;;11.73;5.83;;;;;;;;;;5026513;28;58781;-73
2024/02/21 07:36:05;;;;;;;14.65;6.05;;;;;;;;;;5016778;28;59201;-73
2024/02/21 07:38:30;;;;;;;14.70;6.32;;;;;;;;;;5018675;28;58502;-73
2024/02/21 07:40:55;;;;;;;16.65;7.85;;;;;;;;;;5026692;28;58915;-73
2024/02/21 07:43:22;;;;;;;14.17;6.40;;;;;;;;;;5028410;28;58712;-73
2024/02/21 07:45:47;;;;;;;13.15;6.72;;;;;;;;;;5014449;28;59424;-73
2024/02/21 07:48:12;;;;;;;14.23;7.03;;;;;;;;;;5024293;28;58699;-73
2024/02/21 07:50:37;;;;;;;17.23;6.50;;;;;;;;;;5019955;28;58440;-73
2024/02/21 07:53:03;;;;;;;18.70;8.23;;;;;;;;;;5019754;28;59474;-73
2024/02/21 07:55:28;;;;;;;17.23;7.00;;;;;;;;;;5024819;28;58464;-73
2024/02/21 07:57:53;;;;;;;15.33;6.27;;;;;;;;;;5013173;28;58930;-73
2024/02/21 08:00:21;;;;;;;15.10;7.43;;;;;;;;;;5025363;28;58480;-73
2024/02/21 08:02:47;;;;;;;12.20;6.43;;;;;;;;;;5024920;28;58437;-73
2024/02/21 08:05:12;;;;;;;18.25;6.70;;;;;;;;;;5026885;28;59299;-74
2024/02/21 08:07:38;;;;;;;15.83;6.53;;;;;;;;;;5024246;28;58426;-73
2024/02/21 08:10:03;;;;;;;19.20;6.82;;;;;;;;;;5027060;28;58383;-73
2024/02/21 08:12:29;;;;;;;18.63;7.28;;;;;;;;;;5025716;28;58452;-73
2024/02/21 08:14:54;;;;;;;15.57;5.75;;;;;;;;;;5027041;28;57960;-73
2024/02/21 08:17:19;;;;;;;16.40;6.27;;;;;;;;;;5026689;28;60249;-73
2024/02/21 08:19:44;;;;;;;14.05;6.78;;;;;;;;;;5026197;28;58751;-74
2024/02/21 08:22:09;;;;;;;17.17;6.53;;;;;;;;;;5024701;28;58456;-74
2024/02/21 08:24:34;;;;;;;14.05;7.70;;;;;;;;;;5012352;28;59227;-73
2024/02/21 08:26:59;;;;;;;17.38;7.30;;;;;;;;;;5012276;28;58662;-72
2024/02/21 08:29:25;;;;;;;12.43;6.45;;;;;;;;;;5023561;28;58605;-74
2024/02/21 08:31:50;;;;;;;19.58;7.18;;;;;;;;;;5027573;28;59138;-73
2024/02/21 08:34:15;;;;;;;16.30;6.90;;;;;;;;;;5025468;28;58834;-73
2024/02/21 08:36:40;;;;;;;13.53;5.60;;;;;;;;;;5026550;28;59476;-73
2024/02/21 08:39:05;;;;;;;15.50;7.30;;;;;;;;;;5027722;28;59159;-73
2024/02/21 08:41:31;;;;;;;15.67;7.03;;;;;;;;;;5026242;28;58379;-74
2024/02/21 08:43:56;;;;;;;14.35;6.30;;;;;;;;;;5021837;28;59409;-73
2024/02/21 08:46:21;;;;;;;15.67;5.80;;;;;;;;;;5019154;28;59681;-73
2024/02/21 08:48:47;;;;;;;16.23;7.03;;;;;;;;;;5028394;28;58470;-76
2024/02/21 08:51:13;;;;;;;12.00;6.30;;;;;;;;;;5019528;28;59832;-76
2024/02/21 08:53:38;;;;;;;12.23;6.40;;;;;;;;;;5027764;28;58429;-76
2024/02/21 08:56:03;;;;;;;11.63;5.70;;;;;;;;;;5023621;28;58650;-76
2024/02/21 08:58:29;;;;;;;14.20;6.75;;;;;;;;;;5018693;28;58408;-77
2024/02/21 09:00:54;;;;;;;13.27;4.88;;;;;;;;;;5029484;28;58620;-76
2024/02/21 09:03:19;;;;;;;12.00;5.17;;;;;;;;;;5026777;28;59482;-75
2024/02/21 09:05:45;;;;;;;13.27;5.72;;;;;;;;;;5010622;28;58990;-76
2024/02/21 09:08:10;;;;;;;10.53;5.43;;;;;;;;;;5015881;28;58133;-76
2024/02/21 09:10:35;;;;;;;15.20;6.20;;;;;;;;;;5010272;28;59450;-76
2024/02/21 09:13:00;;;;;;;11.70;7.15;;;;;;;;;;5014685;28;58974;-76
2024/02/21 09:15:26;;;;;;;14.02;6.72;;;;;;;;;;5016851;28;58476;-75
2024/02/21 09:17:51;;;;;;;12.32;4.97;;;;;;;;;;5028369;28;59759;-76
2024/02/21 09:20:17;;;;;;;12.30;6.38;;;;;;;;;;5026454;28;58595;-76
2024/02/21 09:22:42;;;;;;;10.07;5.37;;;;;;;;;;5025082;28;58421;-76
2024/02/21 09:25:07;;;;;;;12.27;5.40;;;;;;;;;;5016721;28;58736;-75
2024/02/21 09:27:32;;;;;;;12.45;5.03;;;;;;;;;;5017440;28;58462;-76
2024/02/21 09:29:57;;;;;;;12.30;6.47;;;;;;;;;;5016286;28;59202;-76
2024/02/21 09:32:23;;;;;;;10.73;5.18;;;;;;;;;;5021639;28;59671;-76
2024/02/21 09:34:48;;;;;;;10.23;5.07;;;;;;;;;;5027324;28;58488;-75
2024/02/21 09:37:13;;;;;;;9.60;5.78;;;;;;;;;;5028127;28;60247;-75
2024/02/21 09:39:38;;;;;;;7.20;5.07;;;;;;;;;;5027264;28;59818;-75
2024/02/21 09:42:05;;;;;;;12.95;5.60;;;;;;;;;;5026201;28;58800;-75
2024/02/21 09:44:33;;;;;;;11.88;5.20;;;;;;;;;;5019345;28;58575;-75
2024/02/21 09:47:11;;;;;;;10.27;4.27;;;;;;;;;;5021198;28;58467;-76
2024/02/21 09:49:37;;;;;;;8.30;4.93;;;;;;;;;;5026749;28;59283;-77
2024/02/21 09:52:04;;;;;;;11.85;5.80;;;;;;;;;;5026766;28;59137;-76
2024/02/21 09:54:32;;;;;;;9.95;4.60;;;;;;;;;;5013582;28;58371;-76
2024/02/21 09:56:58;;;;;;;;;;;;;;;;;;5018934;28;60447;-76
2024/02/21 09:59:23;;;;;;;10.27;5.35;;;;;;;;;;5018463;28;58905;-73
2024/02/21 10:01:50;;;;;;;8.27;5.05;;;;;;;;;;5014351;28;58294;-73
2024/02/21 10:04:15;;;;;;;10.43;5.65;;;;;;;;;;5016325;28;58876;-73
2024/02/21 10:06:41;;;;;;;15.40;5.53;;;;;;;;;;5015381;28;58137;-73
2024/02/21 10:09:06;;;;;;;9.50;4.60;;;;;;;;;;5024217;28;60479;-72
2024/02/21 10:11:32;;;;;;;12.70;5.05;;;;;;;;;;5019681;28;58660;-73
2024/02/21 10:14:05;;;;;;;7.53;4.63;;;;;;;;;;5016210;28;58458;-73
2024/02/21 10:16:30;;;;;;;6.43;4.38;;;;;;;;;;5017021;28;60192;-73
2024/02/21 10:18:55;;;;;;;10.30;4.93;;;;;;;;;;5028096;28;58970;-73
2024/02/21 10:21:20;;;;;;;8.15;5.15;;;;;;;;;;5030007;28;58353;-73
2024/02/21 10:23:47;;;;;;;8.57;4.90;;;;;;;;;;5026786;28;59878;-72
2024/02/21 10:26:13;;;;;;;9.90;4.80;;;;;;;;;;5020366;28;58422;-73
2024/02/21 10:28:42;;;;;;;9.50;4.63;;;;;;;;;;5016441;28;58632;-73
2024/02/21 10:31:07;;;;;;;7.15;4.25;;;;;;;;;;5013305;28;59085;-73
2024/02/21 10:33:33;;;;;;;8.65;4.75;;;;;;;;;;5003717;28;58378;-73
2024/02/21 10:36:06;;;;;;;7.97;4.10;;;;;;;;;;5021789;28;60241;-73
2024/02/21 10:38:31;;;;;;;7.45;4.20;;;;;;;;;;5026049;28;59016;-73
2024/02/21 10:40:58;;;;;;;8.80;4.70;;;;;;;;;;5020152;28;58378;-73
2024/02/21 10:43:24;;;;;;;10.57;4.22;;;;;;;;;;5012273;28;60420;-73
2024/02/21 10:45:51;;;;;;;8.50;4.80;;;;;;;;;;5018689;28;58568;-73
2024/02/21 10:48:24;;;;;;;7.72;3.90;;;;;;;;;;5026460;28;58524;-73
2024/02/21 10:50:53;;;;;;;6.93;4.03;;;;;;;;;;5023817;28;59816;-73
2024/02/21 10:53:18;;;;;;;;;;;;;;;;;;5026086;28;58606;-73
2024/02/21 10:55:50;;;;;;;7.18;4.18;;;;;;;;;;5015618;28;60422;-73
2024/02/21 10:58:15;;;;;;;9.35;5.55;;;;;;;;;;5019504;28;58980;-74
2024/02/21 11:00:40;;;;;;;7.53;3.73;;;;;;;;;;5028262;28;58382;-73
2024/02/21 11:03:05;;;;;;;8.07;4.13;;;;;;;;;;5014840;28;58647;-73
2024/02/21 11:05:32;;;;;;;6.73;3.87;;;;;;;;;;5014619;28;59216;-73
2024/02/21 11:07:57;;;;;;;7.25;3.95;;;;;;;;;;5018351;28;60511;-73
2024/02/21 11:10:23;;;;;;;8.07;3.65;;;;;;;;;;5016209;28;59120;-73
2024/02/21 11:12:48;;;;;;;7.75;4.40;;;;;;;;;;5016269;28;58215;-73
2024/02/21 11:15:14;;;;;;;9.25;4.68;;;;;;;;;;5025947;28;60274;-73
2024/02/21 11:17:39;;;;;;;6.78;3.97;;;;;;;;;;5016944;28;59284;-73
2024/02/21 11:20:12;;;;;;;7.17;3.93;;;;;;;;;;5019111;28;58483;-73
2024/02/21 11:22:41;;;;;;;7.55;3.85;;;;;;;;;;5021613;28;59383;-73
2024/02/21 11:25:16;;;;;;;12.60;4.57;;;;;;;;;;5012770;28;58079;-74
2024/02/21 11:27:46;;;;;;;7.82;4.18;;;;;;;;;;5025311;28;58393;-73
2024/02/21 11:30:12;;;;;;;9.35;5.60;;;;;;;;;;5003550;28;58487;-73
2024/02/21 11:32:37;;;;;;;10.43;4.22;;;;;;;;;;5007960;28;58479;-73
2024/02/21 11:35:06;;;;;;;6.47;4.40;;;;;;;;;;5016940;28;59430;-72
2024/02/21 11:37:36;;;;;;;10.43;4.07;;;;;;;;;;5024025;28;59078;-74
2024/02/21 11:40:03;;;;;;;6.13;3.95;;;;;;;;;;5010606;28;58448;-73
2024/02/21 11:42:28;;;;;;;6.55;3.42;;;;;;;;;;5026690;28;59596;-73
2024/02/21 11:44:56;;;;;;;9.77;4.32;;;;;;;;;;5012196;28;59387;-73
2024/02/21 11:47:22;;;;;;;5.15;3.53;;;;;;;;;;5007866;28;58392;-73
2024/02/21 11:49:49;;;;;;;9.93;4.93;;;;;;;;;;5009409;28;59307;-73
2024/02/21 11:52:15;;;;;;;7.05;4.28;;;;;;;;;;5004614;28;59515;-73
2024/02/21 11:54:40;;;;;;;5.32;4.15;;;;;;;;;;5002688;28;58873;-74
2024/02/21 11:57:05;;;;;;;5.53;3.40;;;;;;;;;;5009135;28;58934;-73
2024/02/21 11:59:31;;;;;;;4.90;3.23;;;;;;;;;;5012419;28;58389;-73
2024/02/21 12:01:58;;;;;;;7.05;3.92;;;;;;;;;;5022391;28;59330;-73
2024/02/21 12:04:25;;;;;;;10.63;4.80;;;;;;;;;;5024285;28;58939;-73
2024/02/21 12:06:53;;;;;;;7.15;4.63;;;;;;;;;;5025514;28;58532;-73
2024/02/21 12:09:18;;;;;;;4.93;3.80;;;;;;;;;;5026493;28;59444;-73
2024/02/21 12:11:44;;;;;;;4.60;2.97;;;;;;;;;;5015172;28;58357;-73
2024/02/21 12:14:09;;;;;;;6.80;3.08;;;;;;;;;;5014692;28;59741;-73
2024/02/21 12:16:36;;;;;;;7.78;4.00;;;;;;;;;;5013377;28;58647;-73
2024/02/21 12:19:03;;;;;;;7.70;4.05;;;;;;;;;;5024282;28;58406;-76
2024/02/21 12:21:32;;;;;;;6.47;3.38;;;;;;;;;;5006862;28;59429;-75
2024/02/21 12:23:58;;;;;;;4.70;3.35;;;;;;;;;;5006968;28;59646;-75
2024/02/21 12:26:23;;;;;;;6.97;3.13;;;;;;;;;;5021196;28;58373;-77
2024/02/21 12:28:48;;;;;;;10.23;4.77;;;;;;;;;;5028555;27;59315;-74
2024/02/21 12:31:13;;;;;;;5.07;3.60;;;;;;;;;;5030546;27;58879;-73
2024/02/21 12:33:39;;;;;;;5.63;3.80;;;;;;;;;;5027623;28;59429;-73
2024/02/21 12:36:04;;;;;;;5.32;3.72;;;;;;;;;;5018042;28;58892;-73
2024/02/21 12:38:29;;;;;;;4.67;3.53;;;;;;;;;;5018154;28;58501;-73
2024/02/21 12:40:54;;;;;;;4.82;3.08;;;;;;;;;;5020363;28;58420;-73
2024/02/21 12:43:20;;;;;;;7.67;4.67;;;;;;;;;;5024450;28;59064;-73
2024/02/21 12:45:45;;;;;;;7.63;3.70;;;;;;;;;;5010044;28;58362;-72
2024/02/21 12:48:10;;;;;;;5.60;4.07;;;;;;;;;;5016514;28;59230;-73
2024/02/21 12:50:35;;;;;;;8.43;3.28;;;;;;;;;;5024353;28;58702;-73
2024/02/21 12:53:00;;;;;;;7.37;4.33;;;;;;;;;;5018361;28;58486;-73
2024/02/21 12:55:26;;;;;;;6.28;4.15;;;;;;;;;;5010147;28;58341;-74
2024/02/21 12:57:51;;;;;;;5.82;3.05;;;;;;;;;;5015513;28;57798;-73
2024/02/21 13:00:17;;;;;;;5.78;3.50;;;;;;;;;;5028269;28;59720;-73
2024/02/21 13:02:43;;;;;;;4.68;3.03;;;;;;;;;;5012562;28;59356;-74
2024/02/21 13:05:08;;;;;;;5.57;4.00;;;;;;;;;;5017513;28;58356;-73
2024/02/21 13:07:33;;;;;;;6.83;3.37;;;;;;;;;;5015798;28;59734;-73
2024/02/21 13:09:58;;;;;;;6.53;3.95;;;;;;;;;;5017816;28;58533;-74
2024/02/21 13:12:25;;;;;;;6.40;3.27;;;;;;;;;;5029349;28;58478;-73
2024/02/21 13:14:51;;;;;;;5.45;2.97;;;;;;;;;;5020191;28;58756;-73
2024/02/21 13:17:16;;;;;;;5.30;3.33;;;;;;;;;;5019486;28;58456;-72
2024/02/21 13:19:41;;;;;;;4.93;2.65;;;;;;;;;;5027335;28;59385;-73
2024/02/21 13:22:06;;;;;;;5.88;3.30;;;;;;;;;;5026453;27;58752;-73
2024/02/21 13:24:32;;;;;;;7.95;4.05;;;;;;;;;;5027134;28;58341;-70
2024/02/21 13:26:57;;;;;;;5.53;3.43;;;;;;;;;;5019051;28;63127;-72
2024/02/21 13:29:22;;;;;;;5.47;3.33;;;;;;;;;;5015828;28;60086;-73
2024/02/21 13:31:47;;;;;;;5.03;3.42;;;;;;;;;;5020516;28;58666;-73
2024/02/21 13:34:13;;;;;;;5.57;2.97;;;;;;;;;;5027509;28;59320;-73
2024/02/21 13:36:38;;;;;;;5.30;3.73;;;;;;;;;;5016075;28;58887;-73
2024/02/21 13:39:04;;;;;;;6.15;3.08;;;;;;;;;;5017837;28;59668;-74
2024/02/21 13:41:30;;;;;;;10.35;3.47;;;;;;;;;;5014656;28;59282;-73
2024/02/21 13:43:55;;;;;;;4.88;3.28;;;;;;;;;;5021517;28;58358;-73
2024/02/21 13:46:22;;;;;;;7.43;3.45;;;;;;;;;;5027232;28;59312;-72
2024/02/21 13:48:47;;;;;;;7.43;3.20;;;;;;;;;;5014692;28;59071;-73
2024/02/21 13:51:12;;;;;;;7.23;3.23;;;;;;;;;;5019527;28;58263;-73
2024/02/21 13:53:37;;;;;;;5.67;3.30;;;;;;;;;;5012391;28;61205;-73
2024/02/21 13:56:02;;;;;;;4.45;3.17;;;;;;;;;;5010404;28;59820;-73
2024/02/21 13:58:27;;;;;;;5.03;2.90;;;;;;;;;;5021165;28;58435;-73
2024/02/21 14:00:53;;;;;;;6.07;3.40;;;;;;;;;;5028199;28;58486;-73
2024/02/21 14:03:20;;;;;;;4.40;2.55;;;;;;;;;;5027938;28;58650;-72
2024/02/21 14:05:45;;;;;;;5.78;3.35;;;;;;;;;;5026169;28;59450;-72
2024/02/21 14:08:10;;;;;;;5.93;3.77;;;;;;;;;;5027011;28;58606;-72
2024/02/21 14:10:37;;;;;;;5.93;3.03;;;;;;;;;;5022766;28;58473;-73
2024/02/21 14:13:02;;;;;;;7.80;3.60;;;;;;;;;;5013584;28;59483;-73
2024/02/21 14:15:27;;;;;;;4.33;3.83;;;;;;;;;;5007728;28;58312;-73
2024/02/21 14:17:52;;;;;;;6.20;3.20;;;;;;;;;;5018682;28;58513;-72
2024/02/21 14:20:17;;;;;;;6.18;2.75;;;;;;;;;;5013734;28;58505;-73
2024/02/21 14:22:42;;;;;;;8.23;3.25;;;;;;;;;;5008991;28;58605;-72
2024/02/21 14:25:08;;;;;;;5.33;3.00;;;;;;;;;;5012729;28;59446;-72
2024/02/21 14:27:35;;;;;;;4.88;2.63;;;;;;;;;;5017422;28;58477;-72
2024/02/21 14:30:02;;;;;;;4.50;2.90;;;;;;;;;;5017412;28;58311;-73